Time;durP1;ratioP1;P1;durP2;ratioP2;P2;SDS_P1;SDS_P2;PMS_P1;PMS_P2;Temp;Humidity;BMP_temperature;BMP_pressure;BME280_temperature;BME280_humidity;BME280_pressure;Samples;Min_cycle;Max_cycle;Signal;HPM_P1;HPM_P2
2022/03/03 00:02:01;;;;;;;58.80;31.75;;;3.00;99.90;;;;;;5074648;28;20040;-53
2022/03/03 00:04:26;;;;;;;60.97;30.98;;;3.00;99.90;;;;;;5066376;28;20455;-52
2022/03/03 00:06:52;;;;;;;60.67;30.08;;;3.00;99.90;;;;;;5067268;28;20122;-49
2022/03/03 00:09:17;;;;;;;58.28;30.15;;;3.10;99.90;;;;;;5073237;28;20090;-50
2022/03/03 00:11:43;;;;;;;57.40;30.77;;;3.00;99.90;;;;;;5074604;28;20041;-52
2022/03/03 00:14:09;;;;;;;56.10;29.50;;;3.00;99.90;;;;;;5074621;28;20040;-51
2022/03/03 00:16:35;;;;;;;56.60;30.02;;;2.90;99.90;;;;;;5073762;28;20462;-52
2022/03/03 00:19:01;;;;;;;64.75;31.48;;;2.90;99.90;;;;;;5074371;28;20488;-50
2022/03/03 00:21:27;;;;;;;57.63;29.38;;;2.90;99.90;;;;;;5073385;28;20481;-51
2022/03/03 00:23:53;;;;;;;59.63;30.58;;;2.90;99.90;;;;;;5073322;28;20119;-54
2022/03/03 00:26:18;;;;;;;57.80;31.45;;;2.90;99.90;;;;;;5074155;28;20119;-52
2022/03/03 00:28:44;;;;;;;59.38;30.50;;;2.90;99.90;;;;;;5074708;28;20036;-52
2022/03/03 00:31:09;;;;;;;59.67;30.98;;;2.80;99.90;;;;;;5074470;28;20098;-52
2022/03/03 00:33:35;;;;;;;53.78;29.42;;;2.80;99.90;;;;;;5074195;28;20044;-52
2022/03/03 00:36:00;;;;;;;55.33;29.65;;;2.80;99.90;;;;;;5074002;28;20033;-52
2022/03/03 00:38:26;;;;;;;52.63;29.90;;;2.80;99.90;;;;;;5073828;28;20037;-49
2022/03/03 00:40:52;;;;;;;56.70;30.60;;;2.80;99.90;;;;;;5074055;28;20040;-54
2022/03/03 00:43:18;;;;;;;60.60;30.60;;;2.80;99.90;;;;;;5074013;28;20040;-52
2022/03/03 00:45:44;;;;;;;54.45;29.40;;;2.80;99.90;;;;;;5074000;28;20047;-54
2022/03/03 00:48:09;;;;;;;57.72;30.20;;;2.60;99.90;;;;;;5071803;28;20451;-52
2022/03/03 00:50:35;;;;;;;56.70;29.55;;;2.80;99.90;;;;;;5073939;28;20051;-52
2022/03/03 00:53:00;;;;;;;57.42;29.17;;;2.80;99.90;;;;;;5073779;28;20047;-53
2022/03/03 00:55:26;;;;;;;55.25;29.40;;;2.70;99.90;;;;;;5073716;28;20044;-52
2022/03/03 00:57:52;;;;;;;56.92;30.13;;;2.70;99.90;;;;;;5073509;28;20033;-51
2022/03/03 01:00:18;;;;;;;61.47;30.15;;;2.70;99.90;;;;;;5073759;28;20494;-51
2022/03/03 01:02:48;;;;;;;62.47;30.02;;;2.60;99.90;;;;;;5073450;28;20090;-51
2022/03/03 01:05:14;;;;;;;57.47;29.77;;;2.60;99.90;;;;;;5073515;28;20409;-51
2022/03/03 01:07:40;;;;;;;55.65;28.27;;;2.50;99.90;;;;;;5072159;28;20059;-55
2022/03/03 01:10:07;;;;;;;54.90;28.40;;;2.60;99.90;;;;;;5073332;28;20488;-52
2022/03/03 01:12:34;;;;;;;52.65;27.92;;;2.50;99.90;;;;;;5072532;28;20048;-52
2022/03/03 01:15:00;;;;;;;58.03;29.38;;;2.70;99.90;;;;;;5055169;28;20041;-50
2022/03/03 01:17:26;;;;;;;55.38;29.45;;;2.60;99.90;;;;;;5072896;28;20044;-50
2022/03/03 01:19:51;;;;;;;56.50;29.67;;;2.50;99.90;;;;;;5055382;28;20036;-52
2022/03/03 01:22:18;;;;;;;60.85;29.55;;;2.70;99.90;;;;;;5073088;28;20041;-52
2022/03/03 01:24:45;;;;;;;52.33;28.67;;;2.70;99.90;;;;;;5073154;28;20055;-51
2022/03/03 01:27:11;;;;;;;53.58;29.30;;;2.70;99.90;;;;;;5071703;28;20087;-52
2022/03/03 01:29:37;;;;;;;54.50;29.05;;;2.60;99.90;;;;;;5072735;28;20063;-52
2022/03/03 01:32:03;;;;;;;50.22;28.27;;;2.60;99.90;;;;;;5073293;28;20037;-53
2022/03/03 01:34:29;;;;;;;54.90;29.05;;;2.60;99.90;;;;;;5072931;28;20097;-50
2022/03/03 01:36:54;;;;;;;52.60;29.08;;;2.60;99.90;;;;;;5072740;28;20040;-49
2022/03/03 01:39:20;;;;;;;52.55;27.70;;;2.50;99.90;;;;;;5073118;28;20036;-52
2022/03/03 01:41:45;;;;;;;55.55;29.75;;;2.50;99.90;;;;;;5073035;28;20077;-54
2022/03/03 01:44:11;;;;;;;56.80;28.75;;;2.50;99.90;;;;;;5072266;28;20081;-52
2022/03/03 01:46:48;;;;;;;54.67;28.02;;;2.40;99.90;;;;;;5054564;28;20174;-50
2022/03/03 01:49:13;;;;;;;52.88;28.65;;;2.40;99.90;;;;;;5072860;28;20626;-53
2022/03/03 01:51:39;;;;;;;56.55;29.42;;;2.30;99.90;;;;;;5072602;28;20112;-51
2022/03/03 01:54:04;;;;;;;58.92;29.30;;;2.30;99.90;;;;;;5072500;28;20044;-49
2022/03/03 01:56:30;;;;;;;54.50;29.80;;;2.30;99.90;;;;;;5072770;28;20158;-49
2022/03/03 01:58:56;;;;;;;54.45;28.35;;;2.20;99.90;;;;;;5070942;28;20058;-53
2022/03/03 02:01:21;;;;;;;52.78;29.05;;;2.10;99.90;;;;;;5070919;28;20515;-52
2022/03/03 02:03:47;;;;;;;55.88;28.10;;;2.20;99.90;;;;;;5053063;28;20507;-52
2022/03/03 02:06:13;;;;;;;53.72;28.33;;;2.20;99.90;;;;;;5063308;28;20051;-52
2022/03/03 02:08:38;;;;;;;52.58;23.23;;;2.20;99.90;;;;;;5072249;28;20044;-52
2022/03/03 02:11:04;;;;;;;54.65;28.20;;;2.40;99.90;;;;;;5072312;28;20047;-48
2022/03/03 02:13:30;;;;;;;52.65;27.55;;;2.40;99.90;;;;;;5071796;28;20080;-50
2022/03/03 02:15:55;;;;;;;52.67;28.80;;;2.30;99.90;;;;;;5071817;28;20032;-52
2022/03/03 02:18:21;;;;;;;53.22;26.45;;;2.30;99.90;;;;;;5071787;28;20037;-52
2022/03/03 02:20:47;;;;;;;52.63;27.42;;;2.20;99.90;;;;;;5071916;28;20078;-52
2022/03/03 02:23:13;;;;;;;52.47;27.13;;;2.30;99.90;;;;;;5072289;28;20044;-52
2022/03/03 02:25:39;;;;;;;50.00;26.50;;;2.30;99.90;;;;;;5071898;28;20036;-52
2022/03/03 02:28:05;;;;;;;49.22;26.90;;;2.30;99.90;;;;;;5071827;28;20385;-55
2022/03/03 02:30:31;;;;;;;54.08;27.25;;;2.30;99.90;;;;;;5071665;28;20040;-53
2022/03/03 02:32:57;;;;;;;48.50;26.02;;;2.30;99.90;;;;;;5054224;28;20038;-53
2022/03/03 02:35:24;;;;;;;50.47;27.13;;;2.20;99.90;;;;;;5071708;28;20044;-52
2022/03/03 02:37:50;;;;;;;48.92;26.45;;;2.10;99.90;;;;;;5030451;28;20045;-51
2022/03/03 02:40:21;;;;;;;52.22;28.48;;;2.10;99.90;;;;;;5061915;28;20033;-51
2022/03/03 02:42:52;;;;;;;52.97;28.73;;;2.10;99.90;;;;;;5051963;28;20108;-51
2022/03/03 02:45:18;;;;;;;54.42;29.35;;;2.00;99.90;;;;;;5052545;28;20041;-52
2022/03/03 02:47:46;;;;;;;52.40;27.00;;;1.90;99.90;;;;;;5071148;28;20063;-51
2022/03/03 02:50:13;;;;;;;51.88;27.42;;;1.80;99.90;;;;;;5053450;28;20044;-53
2022/03/03 02:52:38;;;;;;;52.50;28.38;;;1.70;99.90;;;;;;5070601;28;20032;-50
2022/03/03 02:55:06;;;;;;;50.22;26.65;;;1.70;99.90;;;;;;5071669;28;20576;-51
2022/03/03 03:00:17;;;;;;;50.45;26.75;;;1.90;99.90;;;;;;5071243;28;20047;-51
2022/03/03 03:02:43;;;;;;;50.28;27.60;;;1.90;99.90;;;;;;5071805;28;20094;-52
2022/03/03 03:05:09;;;;;;;51.50;27.10;;;1.80;99.90;;;;;;5071501;28;20484;-51
2022/03/03 03:07:36;;;;;;;51.60;27.40;;;1.70;99.90;;;;;;5071375;28;20381;-51
2022/03/03 03:10:02;;;;;;;48.70;26.58;;;1.60;99.90;;;;;;5071553;28;20428;-50
2022/03/03 03:12:28;;;;;;;49.28;27.42;;;1.50;99.90;;;;;;5071060;28;20044;-52
2022/03/03 03:14:54;;;;;;;51.30;27.17;;;1.50;99.90;;;;;;5070952;28;20408;-53
2022/03/03 03:17:19;;;;;;;48.50;26.67;;;1.60;99.90;;;;;;5070861;28;20420;-50
2022/03/03 03:19:45;;;;;;;48.20;25.55;;;1.80;99.90;;;;;;5069694;28;20040;-51
2022/03/03 03:22:11;;;;;;;47.53;26.45;;;1.60;99.90;;;;;;5071837;28;20059;-53
2022/03/03 03:24:37;;;;;;;49.47;25.98;;;1.60;99.90;;;;;;5071464;28;20149;-52
2022/03/03 03:27:03;;;;;;;51.03;28.17;;;1.60;99.90;;;;;;5069978;28;20139;-53
2022/03/03 03:29:28;;;;;;;53.40;27.58;;;1.50;99.90;;;;;;5069599;28;20040;-51
2022/03/03 03:31:54;;;;;;;51.55;27.70;;;1.40;99.90;;;;;;5071411;28;20037;-49
2022/03/03 03:34:19;;;;;;;49.15;27.25;;;1.40;99.90;;;;;;5071332;28;20370;-52
2022/03/03 03:36:45;;;;;;;56.15;28.58;;;1.30;99.90;;;;;;5051024;28;20076;-52
2022/03/03 03:39:10;;;;;;;48.70;26.95;;;1.30;99.90;;;;;;5051303;28;20048;-51
2022/03/03 03:41:36;;;;;;;55.95;26.83;;;1.30;99.90;;;;;;5051116;28;20037;-52
2022/03/03 03:44:02;;;;;;;48.15;26.40;;;1.30;99.90;;;;;;5048398;28;20041;-53
2022/03/03 03:46:27;;;;;;;50.72;25.58;;;1.30;99.90;;;;;;5069559;28;20044;-52
2022/03/03 03:48:53;;;;;;;47.22;25.55;;;1.40;99.90;;;;;;5071309;28;20486;-52
2022/03/03 03:51:19;;;;;;;43.80;24.02;;;1.40;99.90;;;;;;5069824;28;20051;-52
2022/03/03 03:53:44;;;;;;;48.55;25.75;;;1.40;99.90;;;;;;5070925;28;20047;-53
2022/03/03 03:56:10;;;;;;;41.03;23.33;;;1.50;99.90;;;;;;5070851;28;20036;-52
2022/03/03 03:58:35;;;;;;;45.28;24.77;;;1.50;99.90;;;;;;5070775;28;20032;-53
2022/03/03 04:01:01;;;;;;;46.03;25.50;;;1.40;99.90;;;;;;5071053;28;20051;-52
2022/03/03 04:03:26;;;;;;;45.42;24.15;;;1.50;99.90;;;;;;5071264;28;20521;-52
2022/03/03 04:05:52;;;;;;;41.35;22.60;;;1.60;99.90;;;;;;5071110;28;20044;-52
2022/03/03 04:08:18;;;;;;;41.10;23.20;;;1.60;99.90;;;;;;5070407;28;20408;-53
2022/03/03 04:10:45;;;;;;;43.28;23.23;;;1.60;99.90;;;;;;5069336;28;20412;-50
2022/03/03 04:13:10;;;;;;;49.10;24.23;;;1.60;99.90;;;;;;5070723;28;20037;-52
2022/03/03 04:15:36;;;;;;;40.25;23.77;;;1.60;99.90;;;;;;5070843;28;20554;-52
2022/03/03 04:18:01;;;;;;;42.58;24.27;;;1.60;99.90;;;;;;5052859;28;20447;-51
2022/03/03 04:20:27;;;;;;;41.65;22.65;;;1.60;99.90;;;;;;5069780;28;20032;-51
2022/03/03 04:22:53;;;;;;;43.95;22.98;;;1.60;99.90;;;;;;5071490;28;20037;-51
2022/03/03 04:25:19;;;;;;;43.05;23.92;;;1.60;99.90;;;;;;5074529;28;20036;-52
2022/03/03 04:27:45;;;;;;;42.10;22.00;;;1.60;99.90;;;;;;5073669;28;20458;-53
2022/03/03 04:30:11;;;;;;;44.15;24.27;;;1.60;99.90;;;;;;5074680;28;20048;-52
2022/03/03 04:32:38;;;;;;;39.28;19.52;;;1.50;99.90;;;;;;5073074;28;20047;-52
2022/03/03 04:35:04;;;;;;;42.20;21.40;;;1.50;99.90;;;;;;5074387;28;20037;-49
2022/03/03 04:37:30;;;;;;;39.88;20.60;;;1.50;99.90;;;;;;5074236;28;20032;-51
2022/03/03 04:39:56;;;;;;;42.90;23.55;;;1.50;99.90;;;;;;5073981;28;20085;-52
2022/03/03 04:42:21;;;;;;;39.92;21.42;;;1.50;99.90;;;;;;5073664;28;20032;-52
2022/03/03 04:44:47;;;;;;;41.45;23.88;;;1.50;99.90;;;;;;5074245;28;20412;-54
2022/03/03 04:48:03;;;;;;;46.28;25.42;;;1.40;99.90;;;;;;5081505;28;20044;-53
2022/03/03 04:51:08;;;;;;;45.97;23.20;;;1.40;99.90;;;;;;5075737;28;20047;-52
2022/03/03 04:53:34;;;;;;;40.20;21.45;;;1.40;99.90;;;;;;5073986;28;20058;-51
2022/03/03 04:56:00;;;;;;;43.05;21.65;;;1.40;99.90;;;;;;5073410;28;20036;-50
2022/03/03 04:58:26;;;;;;;41.70;22.13;;;1.40;99.90;;;;;;5073533;28;20041;-50
2022/03/03 05:00:52;;;;;;;43.22;22.92;;;1.40;99.90;;;;;;5073733;28;20067;-52
2022/03/03 05:03:18;;;;;;;41.45;20.90;;;1.40;99.90;;;;;;5073307;28;20120;-53
2022/03/03 05:05:43;;;;;;;45.08;23.92;;;1.40;99.90;;;;;;5073811;28;20040;-55
2022/03/03 05:08:09;;;;;;;40.17;21.00;;;1.30;99.90;;;;;;5073684;28;20178;-49
2022/03/03 05:10:35;;;;;;;40.30;23.08;;;1.40;99.90;;;;;;5073609;28;20036;-51
2022/03/03 05:13:01;;;;;;;46.38;24.65;;;1.40;99.90;;;;;;5073292;28;20087;-51
2022/03/03 05:15:27;;;;;;;45.92;22.60;;;1.30;99.90;;;;;;5073439;28;20044;-51
2022/03/03 05:17:52;;;;;;;43.47;23.67;;;1.30;99.90;;;;;;5072624;28;20036;-52
2022/03/03 05:20:18;;;;;;;45.58;24.67;;;1.30;99.90;;;;;;5073782;28;20043;-52
2022/03/03 05:22:44;;;;;;;45.97;24.30;;;1.40;99.90;;;;;;5073322;28;20044;-51
2022/03/03 05:25:13;;;;;;;49.13;23.20;;;1.20;99.90;;;;;;5073897;28;20036;-54
2022/03/03 05:27:40;;;;;;;43.33;23.77;;;1.20;99.90;;;;;;5073768;28;20381;-53
2022/03/03 05:30:07;;;;;;;39.78;21.00;;;1.20;99.90;;;;;;5073617;28;20123;-49
2022/03/03 05:32:33;;;;;;;41.00;22.33;;;1.30;99.90;;;;;;5071407;28;20553;-51
2022/03/03 05:34:58;;;;;;;38.92;23.38;;;1.30;99.90;;;;;;5073039;28;20040;-52
2022/03/03 05:37:25;;;;;;;38.85;23.00;;;1.30;99.90;;;;;;5072142;28;20511;-49
2022/03/03 05:39:52;;;;;;;40.72;22.25;;;1.30;99.90;;;;;;5071786;28;20044;-53
2022/03/03 05:42:23;;;;;;;39.50;22.83;;;1.30;99.90;;;;;;5072682;28;20040;-52
2022/03/03 05:44:49;;;;;;;41.88;23.58;;;1.30;99.90;;;;;;5054973;28;20032;-51
2022/03/03 05:47:16;;;;;;;40.13;22.67;;;1.20;99.90;;;;;;5071799;28;20048;-52
2022/03/03 05:49:44;;;;;;;38.53;22.70;;;1.20;99.90;;;;;;5054483;28;20474;-52
2022/03/03 05:52:09;;;;;;;39.72;23.05;;;1.20;99.90;;;;;;5056775;28;20076;-51
2022/03/03 05:54:36;;;;;;;44.33;23.52;;;1.20;99.90;;;;;;5072650;28;20095;-52
2022/03/03 05:57:06;;;;;;;40.15;23.02;;;1.20;99.90;;;;;;5071456;28;20042;-52
2022/03/03 05:59:32;;;;;;;41.65;23.85;;;1.10;99.90;;;;;;5071385;28;20488;-52
2022/03/03 06:01:59;;;;;;;37.53;22.33;;;1.10;99.90;;;;;;5072555;28;20041;-52
2022/03/03 06:04:28;;;;;;;41.67;23.75;;;1.10;99.90;;;;;;5072915;28;20040;-51
2022/03/03 06:07:07;;;;;;;38.92;21.52;;;1.00;99.90;;;;;;5071188;28;20420;-52
2022/03/03 06:09:35;;;;;;;40.50;22.65;;;1.00;99.90;;;;;;5071201;28;20060;-52
2022/03/03 06:12:06;;;;;;;38.35;22.08;;;1.00;99.90;;;;;;5071789;28;20136;-51
2022/03/03 06:14:47;;;;;;;43.17;22.83;;;1.00;99.90;;;;;;5072097;28;20072;-52
2022/03/03 06:17:14;;;;;;;42.05;23.48;;;0.90;99.90;;;;;;5071605;28;20047;-52
2022/03/03 06:19:41;;;;;;;41.88;23.30;;;0.80;99.90;;;;;;5070461;28;20032;-51
2022/03/03 06:22:09;;;;;;;42.60;24.10;;;0.70;99.90;;;;;;5072235;28;20040;-50
2022/03/03 06:24:35;;;;;;;38.63;22.38;;;0.60;99.90;;;;;;5069175;28;20553;-51
2022/03/03 06:27:01;;;;;;;38.78;22.33;;;0.60;99.90;;;;;;5071489;28;20047;-51
2022/03/03 06:29:27;;;;;;;39.65;23.77;;;0.60;99.90;;;;;;5071950;28;20036;-50
2022/03/03 06:31:53;;;;;;;40.22;22.00;;;0.60;99.90;;;;;;5069684;28;20037;-49
2022/03/03 06:34:20;;;;;;;45.83;22.63;;;0.50;99.90;;;;;;5068927;28;20040;-52
2022/03/03 06:36:49;;;;;;;41.63;23.10;;;0.50;99.90;;;;;;5053685;28;20036;-52
2022/03/03 06:39:15;;;;;;;43.10;23.52;;;0.50;99.90;;;;;;5070587;28;20072;-50
2022/03/03 06:41:41;;;;;;;41.35;22.70;;;0.50;99.90;;;;;;5070718;28;20129;-50
2022/03/03 06:44:07;;;;;;;43.15;22.50;;;0.50;99.90;;;;;;5071109;28;20075;-50
2022/03/03 06:46:36;;;;;;;37.95;22.05;;;0.50;99.90;;;;;;5059757;28;20037;-50
2022/03/03 06:49:02;;;;;;;39.10;22.83;;;0.60;99.90;;;;;;5058869;28;20116;-51
2022/03/03 06:51:33;;;;;;;37.28;21.63;;;0.60;99.90;;;;;;5068292;28;20532;-51
2022/03/03 06:54:04;;;;;;;40.03;22.98;;;0.50;99.90;;;;;;5071795;28;20044;-51
2022/03/03 06:56:30;;;;;;;42.42;23.05;;;0.50;99.90;;;;;;5071441;28;20044;-48
2022/03/03 06:58:59;;;;;;;37.92;21.67;;;0.60;99.90;;;;;;5071489;28;20115;-51
2022/03/03 07:01:28;;;;;;;38.03;22.13;;;0.70;99.90;;;;;;5070355;28;20043;-53
2022/03/03 07:03:58;;;;;;;39.60;22.55;;;0.70;99.90;;;;;;5071226;28;20040;-50
2022/03/03 07:06:24;;;;;;;38.80;21.35;;;0.80;99.90;;;;;;5071085;28;20040;-51
2022/03/03 07:08:54;;;;;;;38.38;22.13;;;0.90;99.90;;;;;;5068911;28;20480;-51
2022/03/03 07:11:22;;;;;;;37.65;21.38;;;1.00;99.90;;;;;;5070721;28;20033;-48
2022/03/03 07:13:47;;;;;;;40.05;21.80;;;1.10;99.90;;;;;;5070750;28;20036;-53
2022/03/03 07:16:40;;;;;;;39.92;22.45;;;1.20;99.90;;;;;;5069537;28;20044;-52
2022/03/03 07:19:21;;;;;;;38.33;21.70;;;1.30;99.90;;;;;;5071638;28;20111;-51
2022/03/03 07:22:24;;;;;;;38.13;20.55;;;1.40;99.90;;;;;;5070037;28;20037;-50
2022/03/03 07:25:06;;;;;;;37.20;21.23;;;1.50;99.90;;;;;;5071190;28;20432;-52
2022/03/03 07:27:33;;;;;;;38.30;20.83;;;1.50;99.90;;;;;;5069710;28;20048;-49
2022/03/03 07:30:15;;;;;;;40.00;21.13;;;1.60;99.90;;;;;;5071412;28;20408;-48
2022/03/03 07:32:53;;;;;;;40.20;21.95;;;1.70;99.90;;;;;;5071427;28;20490;-50
2022/03/03 07:35:22;;;;;;;38.15;21.40;;;1.70;99.90;;;;;;5052362;28;20044;-51
2022/03/03 07:37:53;;;;;;;38.00;21.23;;;1.80;99.90;;;;;;5070814;28;20036;-50
2022/03/03 07:40:19;;;;;;;37.72;21.20;;;2.00;99.90;;;;;;5062647;28;20037;-51
2022/03/03 07:42:45;;;;;;;38.20;20.75;;;2.10;99.90;;;;;;5051301;28;20043;-52
2022/03/03 07:45:11;;;;;;;39.70;22.08;;;2.20;99.90;;;;;;5051287;28;20041;-50
2022/03/03 07:47:39;;;;;;;39.00;21.23;;;2.20;99.90;;;;;;5050854;28;20048;-53
2022/03/03 07:50:05;;;;;;;37.85;20.98;;;2.30;99.90;;;;;;5050948;28;20080;-51
2022/03/03 07:52:31;;;;;;;35.53;21.60;;;2.40;99.90;;;;;;5051095;28;20036;-52
2022/03/03 07:54:57;;;;;;;33.13;19.13;;;2.50;99.90;;;;;;5050997;28;20485;-52
2022/03/03 07:57:25;;;;;;;38.25;21.70;;;2.50;99.90;;;;;;5050984;28;20102;-52
2022/03/03 08:00:04;;;;;;;33.88;19.70;;;2.70;99.90;;;;;;5036709;28;20044;-52
2022/03/03 08:02:31;;;;;;;35.88;20.70;;;2.80;99.90;;;;;;5057289;28;20048;-51
2022/03/03 08:05:00;;;;;;;34.38;19.70;;;2.90;99.90;;;;;;5069020;28;20087;-51
2022/03/03 08:08:10;;;;;;;32.33;19.65;;;3.00;99.90;;;;;;5170742;22;20102;-54
2022/03/03 08:10:40;;;;;;;33.47;19.57;;;3.10;99.90;;;;;;5086629;28;20043;-53
2022/03/03 08:13:08;;;;;;;32.78;18.90;;;3.30;99.90;;;;;;5088454;28;20349;-54
2022/03/03 08:15:35;;;;;;;38.40;20.25;;;3.40;99.90;;;;;;5093753;28;20086;-54
2022/03/03 08:18:01;;;;;;;29.17;16.33;;;3.50;99.90;;;;;;5093342;28;20055;-54
2022/03/03 08:20:26;;;;;;;33.72;19.25;;;3.50;99.90;;;;;;5094930;28;20040;-54
2022/03/03 08:22:54;;;;;;;32.22;19.45;;;3.70;99.90;;;;;;5094754;28;20044;-54
2022/03/03 08:25:19;;;;;;;37.67;19.52;;;3.70;99.90;;;;;;5094744;28;20044;-54
2022/03/03 08:27:45;;;;;;;35.65;18.42;;;3.80;99.90;;;;;;5094509;28;20403;-54
2022/03/03 08:30:12;;;;;;;28.65;17.63;;;3.90;99.20;;;;;;5094568;28;20092;-54
2022/03/03 08:32:53;;;;;;;24.45;14.35;;;4.00;98.70;;;;;;5094526;28;20543;-54
2022/03/03 08:35:23;;;;;;;28.27;17.35;;;4.00;98.30;;;;;;5094599;28;20107;-54
2022/03/03 08:37:54;;;;;;;29.38;17.20;;;4.10;97.40;;;;;;5093004;28;20051;-54
2022/03/03 08:40:20;;;;;;;31.52;17.85;;;4.10;96.50;;;;;;5094816;28;20032;-55
2022/03/03 08:42:49;;;;;;;30.67;18.27;;;4.20;96.50;;;;;;5094516;28;20109;-54
2022/03/03 08:45:19;;;;;;;33.80;18.73;;;4.20;96.40;;;;;;5094574;28;20049;-54
2022/03/03 08:47:58;;;;;;;33.28;19.00;;;4.20;96.50;;;;;;5094071;28;20032;-54
2022/03/03 08:50:27;;;;;;;32.90;19.45;;;4.20;95.80;;;;;;5094216;28;20044;-54
2022/03/03 08:52:57;;;;;;;33.40;18.50;;;4.30;95.60;;;;;;5076108;28;20089;-54
2022/03/03 08:55:24;;;;;;;33.08;18.05;;;4.30;95.80;;;;;;5094468;28;20081;-54
2022/03/03 08:57:49;;;;;;;32.28;18.23;;;4.40;94.80;;;;;;5093948;28;20079;-54
2022/03/03 09:00:15;;;;;;;35.42;19.23;;;4.40;95.30;;;;;;5094019;28;20451;-54
2022/03/03 09:02:41;;;;;;;30.88;18.25;;;4.50;96.00;;;;;;5094299;28;20038;-55
2022/03/03 09:05:08;;;;;;;32.92;19.45;;;4.60;95.10;;;;;;5093933;28;20032;-54
2022/03/03 09:07:34;;;;;;;30.67;19.10;;;4.60;95.50;;;;;;5093889;28;20052;-54
2022/03/03 09:09:59;;;;;;;33.33;18.92;;;4.70;95.20;;;;;;5093947;28;20044;-54
2022/03/03 09:12:25;;;;;;;28.60;16.45;;;4.80;94.70;;;;;;5094116;28;20421;-54
2022/03/03 09:14:50;;;;;;;34.33;19.98;;;4.90;94.60;;;;;;5092271;28;20519;-55
2022/03/03 09:17:16;;;;;;;28.77;17.58;;;4.90;94.70;;;;;;5093311;28;20518;-54
2022/03/03 09:19:42;;;;;;;31.73;17.83;;;5.00;94.40;;;;;;5093540;28;20040;-54
2022/03/03 09:22:07;;;;;;;31.10;18.95;;;5.10;93.50;;;;;;5092565;28;20069;-54
2022/03/03 09:24:33;;;;;;;30.25;16.92;;;5.10;93.30;;;;;;5094336;28;20036;-55
2022/03/03 09:26:58;;;;;;;30.55;18.58;;;5.20;93.10;;;;;;5093319;28;20403;-54
2022/03/03 09:29:24;;;;;;;32.85;18.90;;;5.20;93.30;;;;;;5093555;28;20032;-54
2022/03/03 09:31:50;;;;;;;27.40;17.42;;;5.30;94.00;;;;;;5093429;28;20043;-54
2022/03/03 09:34:16;;;;;;;31.27;18.00;;;5.40;93.30;;;;;;5093196;28;20090;-54
2022/03/03 09:36:41;;;;;;;25.95;16.92;;;5.60;92.20;;;;;;5093365;28;20040;-54
2022/03/03 09:39:07;;;;;;;30.23;18.25;;;5.70;91.20;;;;;;5093445;28;20039;-54
2022/03/03 09:41:33;;;;;;;30.38;17.27;;;5.70;92.00;;;;;;5092051;28;20072;-55
2022/03/03 09:43:59;;;;;;;31.13;18.98;;;5.70;91.70;;;;;;5075348;28;20384;-54
2022/03/03 09:46:25;;;;;;;32.83;18.42;;;5.80;92.00;;;;;;5092660;28;20043;-54
2022/03/03 09:48:51;;;;;;;32.25;17.45;;;5.90;90.20;;;;;;5093041;28;20043;-54
2022/03/03 09:51:17;;;;;;;29.80;17.55;;;5.90;91.10;;;;;;5093320;28;20054;-54
2022/03/03 09:53:42;;;;;;;27.30;16.88;;;6.00;91.40;;;;;;5093294;28;20040;-54
2022/03/03 09:56:08;;;;;;;27.80;17.25;;;6.10;89.70;;;;;;5092938;28;20085;-55
2022/03/03 09:58:34;;;;;;;27.98;16.83;;;6.20;88.50;;;;;;5093232;28;20135;-55
2022/03/03 10:01:00;;;;;;;31.42;17.58;;;6.20;89.10;;;;;;5092881;28;20268;-54
2022/03/03 10:03:33;;;;;;;26.48;15.57;;;6.30;88.90;;;;;;5092912;28;20062;-54
2022/03/03 10:06:00;;;;;;;26.65;16.35;;;6.40;88.60;;;;;;5092663;28;20071;-54
2022/03/03 10:08:28;;;;;;;25.90;16.83;;;6.50;85.70;;;;;;5092772;28;20040;-54
2022/03/03 10:10:57;;;;;;;29.15;17.90;;;6.50;84.90;;;;;;5092934;28;20376;-55
2022/03/03 10:13:24;;;;;;;26.48;16.55;;;6.60;83.80;;;;;;5091424;28;20085;-54
2022/03/03 10:15:55;;;;;;;28.10;16.92;;;6.70;85.70;;;;;;5092297;28;20044;-54
2022/03/03 10:18:22;;;;;;;27.98;17.15;;;6.70;83.00;;;;;;5092543;28;20047;-55
2022/03/03 10:20:58;;;;;;;26.33;16.38;;;6.80;84.60;;;;;;5092065;28;20506;-56
2022/03/03 10:23:31;;;;;;;28.33;16.55;;;6.90;84.20;;;;;;5096409;28;20442;-52
2022/03/03 10:25:57;;;;;;;;;;;7.10;81.20;;;;;;5092793;28;20036;-55
2022/03/03 10:28:31;;;;;;;26.10;15.98;;;7.10;84.00;;;;;;5092151;28;20006;-53
2022/03/03 10:31:05;;;;;;;26.80;17.38;;;7.20;83.20;;;;;;5092457;28;20085;-52
2022/03/03 10:33:39;;;;;;;24.40;13.95;;;7.30;81.90;;;;;;5090904;28;20036;-50
2022/03/03 10:36:11;;;;;;;31.77;16.45;;;7.40;77.10;;;;;;5092111;28;20369;-52
2022/03/03 10:38:55;;;;;;;24.75;15.65;;;7.40;78.30;;;;;;5092230;28;20548;-53
2022/03/03 10:41:33;;;;;;;25.05;16.27;;;7.50;75.80;;;;;;5092494;28;20063;-52
2022/03/03 10:44:02;;;;;;;24.83;14.60;;;7.60;73.70;;;;;;5092296;28;20085;-50
2022/03/03 10:46:29;;;;;;;24.45;15.68;;;7.70;73.80;;;;;;5091857;28;20036;-51
2022/03/03 10:52:40;;;;;;;31.55;18.58;;;7.80;74.70;;;;;;5295798;22;20182;-54
2022/03/03 10:55:13;;;;;;;26.02;15.43;;;7.80;75.30;;;;;;5041696;28;20049;-54
2022/03/03 10:57:43;;;;;;;27.85;17.02;;;7.90;72.30;;;;;;5036109;28;20033;-54
2022/03/03 11:00:12;;;;;;;25.35;15.27;;;8.00;72.80;;;;;;5031922;28;20167;-54
2022/03/03 11:02:40;;;;;;;25.38;16.00;;;8.10;70.40;;;;;;5031772;28;20076;-55
2022/03/03 11:05:09;;;;;;;28.75;16.05;;;8.20;72.20;;;;;;5031718;28;20049;-55
2022/03/03 11:07:35;;;;;;;24.08;15.85;;;8.30;72.20;;;;;;5031568;28;20044;-55
2022/03/03 11:10:03;;;;;;;23.92;15.38;;;8.30;70.80;;;;;;5031345;28;20044;-55
2022/03/03 11:12:29;;;;;;;24.73;16.17;;;8.30;68.20;;;;;;5030367;28;20555;-56
2022/03/03 11:14:56;;;;;;;27.23;15.93;;;8.40;68.80;;;;;;5030179;28;20049;-55
2022/03/03 11:17:22;;;;;;;23.98;14.80;;;8.40;69.20;;;;;;5031261;28;20476;-55
2022/03/03 11:19:51;;;;;;;25.40;15.88;;;8.50;65.90;;;;;;5031465;28;20034;-55
2022/03/03 11:22:17;;;;;;;26.45;16.15;;;8.50;66.40;;;;;;5031409;28;20129;-55
2022/03/03 11:24:44;;;;;;;27.83;17.35;;;8.60;67.50;;;;;;5031592;28;20041;-54
2022/03/03 11:27:10;;;;;;;29.60;16.67;;;8.60;66.40;;;;;;5013433;28;20132;-55
2022/03/03 11:29:38;;;;;;;27.65;16.80;;;8.60;67.10;;;;;;5031791;28;20116;-55
2022/03/03 11:32:16;;;;;;;27.90;16.98;;;8.60;67.60;;;;;;5030913;28;20049;-55
2022/03/03 11:34:44;;;;;;;28.13;15.95;;;8.70;65.90;;;;;;5035463;28;20088;-55
2022/03/03 11:37:09;;;;;;;25.88;16.17;;;8.80;65.70;;;;;;5034889;28;20038;-55
2022/03/03 11:39:42;;;;;;;23.60;15.15;;;8.80;65.20;;;;;;5035794;28;20045;-54
2022/03/03 11:42:31;;;;;;;24.15;15.45;;;8.80;64.60;;;;;;5035501;28;20095;-55
2022/03/03 11:45:07;;;;;;;24.67;15.75;;;8.90;62.10;;;;;;5034367;28;20448;-55
2022/03/03 11:47:35;;;;;;;21.20;13.60;;;8.90;61.50;;;;;;5034998;28;20045;-55
2022/03/03 11:50:06;;;;;;;25.02;14.05;;;8.90;61.50;;;;;;5035529;28;20037;-55
2022/03/03 11:52:40;;;;;;;24.33;16.03;;;9.00;62.60;;;;;;5035243;28;20048;-55
2022/03/03 11:55:36;;;;;;;26.40;15.23;;;9.10;62.60;;;;;;5035177;28;21060;-54
2022/03/03 11:58:17;;;;;;;22.35;11.95;;;9.20;61.60;;;;;;5034756;28;20516;-54
2022/03/03 12:01:06;;;;;;;20.52;13.48;;;9.20;59.80;;;;;;5035175;28;20038;-55
2022/03/03 12:03:33;;;;;;;25.30;15.18;;;9.30;59.20;;;;;;5035190;28;20061;-55
2022/03/03 12:06:12;;;;;;;24.98;13.98;;;9.30;59.80;;;;;;5034775;28;20536;-54
2022/03/03 12:08:39;;;;;;;21.88;14.40;;;9.20;60.60;;;;;;5035367;28;20069;-55
2022/03/03 12:11:14;;;;;;;21.55;13.90;;;9.30;57.90;;;;;;5035015;28;20041;-55
2022/03/03 12:13:40;;;;;;;23.42;12.98;;;9.30;59.10;;;;;;5050208;28;20482;-54
2022/03/03 12:16:13;;;;;;;20.38;13.82;;;9.40;56.90;;;;;;5034648;28;20052;-55
2022/03/03 12:18:39;;;;;;;19.05;11.52;;;9.30;59.20;;;;;;5034899;28;20490;-55
2022/03/03 12:21:28;;;;;;;18.33;12.10;;;9.40;57.40;;;;;;5035261;28;20042;-55
2022/03/03 12:24:17;;;;;;;18.92;12.70;;;9.50;56.60;;;;;;5034891;28;20046;-55
2022/03/03 12:26:52;;;;;;;18.55;12.25;;;9.50;57.90;;;;;;5034715;28;20053;-55
2022/03/03 12:29:35;;;;;;;19.17;12.18;;;9.60;58.00;;;;;;5033274;28;20053;-55
2022/03/03 12:32:26;;;;;;;19.13;12.95;;;9.60;58.20;;;;;;5035120;28;20397;-55
2022/03/03 12:34:52;;;;;;;17.90;12.13;;;9.70;58.80;;;;;;5034372;28;20052;-55
2022/03/03 12:37:18;;;;;;;17.52;10.95;;;9.70;59.10;;;;;;5034226;28;20050;-55
2022/03/03 12:39:52;;;;;;;20.48;11.77;;;9.70;59.40;;;;;;5049952;28;20044;-55
2022/03/03 12:42:20;;;;;;;16.55;11.18;;;9.80;59.40;;;;;;5034634;28;20038;-55
2022/03/03 12:44:54;;;;;;;16.58;11.30;;;9.90;58.40;;;;;;5033555;28;20038;-55
2022/03/03 12:47:43;;;;;;;17.58;11.02;;;9.90;58.50;;;;;;5016111;28;20084;-55
2022/03/03 12:50:11;;;;;;;16.83;11.43;;;9.80;59.30;;;;;;5034061;28;20050;-55
2022/03/03 12:52:38;;;;;;;18.17;10.77;;;9.90;59.60;;;;;;5034229;28;20413;-55